createdAt,value
2023-03-12T00:00:51.284Z,98727.56
2023-03-12T00:03:18.570Z,98740.09
2023-03-12T00:05:46.554Z,98717.19
2023-03-12T00:08:13.958Z,98729.13
2023-03-12T00:10:41.601Z,98735.09
2023-03-12T00:13:09.388Z,98728.22
2023-03-12T00:15:40.363Z,98739.53
2023-03-12T00:18:07.904Z,98742.72
2023-03-12T00:20:35.301Z,98741.19
2023-03-12T00:23:02.381Z,98744.38
2023-03-12T00:25:29.314Z,98747.88
2023-03-12T00:27:56.293Z,98744.91
2023-03-12T00:30:23.156Z,98770.16
2023-03-12T00:32:50.395Z,98771.25
2023-03-12T00:35:17.336Z,98763.78
2023-03-12T00:37:46.498Z,98770.53
2023-03-12T00:40:13.774Z,98768.88
2023-03-12T00:42:40.823Z,98766.28
2023-03-12T00:45:08.599Z,98767.09
2023-03-12T00:47:35.604Z,98770.28
2023-03-12T00:50:02.595Z,98775.50
2023-03-12T00:52:29.451Z,98769.91
2023-03-12T00:54:59.045Z,98764.91
2023-03-12T00:57:26.197Z,98758.81
2023-03-12T00:59:53.094Z,98770.25
2023-03-12T01:02:20.198Z,98766.97
2023-03-12T01:04:47.058Z,98771.06
2023-03-12T01:07:14.029Z,98769.38
2023-03-12T01:09:41.026Z,98765.00
2023-03-12T01:12:08.357Z,98763.19
2023-03-12T01:14:35.270Z,98769.81
2023-03-12T01:17:02.151Z,98777.53
2023-03-12T01:19:32.430Z,98774.38
2023-03-12T01:21:59.529Z,98773.38
2023-03-12T01:24:26.490Z,98773.63
2023-03-12T01:26:54.462Z,98775.16
2023-03-12T01:29:21.487Z,98774.03
2023-03-12T01:31:49.579Z,98775.84
2023-03-12T01:34:16.371Z,98779.09
2023-03-12T01:36:44.821Z,98782.63
2023-03-12T01:39:11.678Z,98779.19
2023-03-12T01:41:38.668Z,98778.59
2023-03-12T01:44:05.828Z,98784.88
2023-03-12T01:46:34.264Z,98772.69
2023-03-12T01:49:14.763Z,98776.09
2023-03-12T01:52:06.959Z,98776.03
2023-03-12T01:54:54.863Z,98776.03
2023-03-12T01:57:27.059Z,98777.53
2023-03-12T02:00:00.483Z,98766.88
2023-03-12T02:02:30.315Z,98771.16
2023-03-12T02:05:26.025Z,98778.78
2023-03-12T02:07:53.158Z,98790.59
2023-03-12T02:10:20.342Z,98791.59
2023-03-12T02:12:47.326Z,98794.84
2023-03-12T02:15:14.572Z,98797.81
2023-03-12T02:17:41.916Z,98790.78
2023-03-12T02:20:42.424Z,98808.97
2023-03-12T02:23:32.098Z,98813.97
2023-03-12T02:26:00.375Z,98813.09
2023-03-12T02:28:29.446Z,98813.03
2023-03-12T02:31:03.707Z,98824.09
2023-03-12T02:33:35.064Z,98826.84
2023-03-12T02:36:01.992Z,98828.34
2023-03-12T02:38:36.919Z,98830.66
2023-03-12T02:41:15.202Z,98837.78
2023-03-12T02:43:49.527Z,98845.63
2023-03-12T02:46:17.004Z,98853.13
2023-03-12T02:48:44.589Z,98855.28
2023-03-12T02:51:11.615Z,98859.75
2023-03-12T02:53:39.112Z,98861.94
2023-03-12T02:56:06.831Z,98865.84
2023-03-12T02:58:34.385Z,98859.50
2023-03-12T03:01:01.255Z,98872.06
2023-03-12T03:03:28.367Z,98871.59
2023-03-12T03:05:55.844Z,98883.41
2023-03-12T03:08:22.819Z,98885.81
2023-03-12T03:10:52.091Z,98878.88
2023-03-12T03:13:19.031Z,98881.38
2023-03-12T03:15:46.110Z,98882.53
2023-03-12T03:18:13.077Z,98878.78
2023-03-12T03:20:40.076Z,98890.13
2023-03-12T03:23:07.016Z,98902.50
2023-03-12T03:25:53.127Z,98890.13
2023-03-12T03:28:39.032Z,98904.81
2023-03-12T03:31:07.239Z,98907.34
2023-03-12T03:33:36.561Z,98911.34
2023-03-12T03:36:04.784Z,98921.81
2023-03-12T03:38:33.159Z,98916.31
2023-03-12T03:40:59.976Z,98922.84
2023-03-12T03:43:27.817Z,98926.69
2023-03-12T03:45:59.699Z,98932.06
2023-03-12T03:48:26.991Z,98936.94
2023-03-12T03:50:54.778Z,98946.25
2023-03-12T03:53:21.943Z,98945.25
2023-03-12T03:55:48.919Z,98942.66
2023-03-12T03:58:15.841Z,98942.00
2023-03-12T04:00:45.995Z,98947.88
2023-03-12T04:03:14.558Z,98951.97
2023-03-12T04:05:45.378Z,98958.84
2023-03-12T04:08:13.871Z,98963.03
2023-03-12T04:10:41.412Z,98951.25
2023-03-12T04:13:08.422Z,98964.78
2023-03-12T04:15:35.365Z,98971.53
2023-03-12T04:18:02.441Z,98976.47
2023-03-12T04:20:29.937Z,98966.16
2023-03-12T04:22:58.685Z,98972.47
2023-03-12T04:25:25.576Z,98982.94
2023-03-12T04:27:52.485Z,98989.47
2023-03-12T04:30:19.490Z,98994.81
2023-03-12T04:32:46.476Z,98983.63
2023-03-12T04:35:13.514Z,98975.03
2023-03-12T04:37:40.579Z,98990.91
2023-03-12T04:40:09.929Z,98996.34
2023-03-12T04:42:37.658Z,99000.25
2023-03-12T04:45:06.689Z,98992.28
2023-03-12T04:47:34.719Z,99000.88
2023-03-12T04:50:01.609Z,99007.94
2023-03-12T04:52:29.059Z,99012.66
2023-03-12T04:55:14.661Z,99021.25
2023-03-12T04:57:41.818Z,99027.50
2023-03-12T05:00:28.553Z,99024.44
2023-03-12T05:02:56.593Z,99033.94
2023-03-12T05:05:23.767Z,99037.63
2023-03-12T05:07:50.624Z,99044.38
2023-03-12T05:10:18.100Z,99046.84
2023-03-12T05:12:45.399Z,99048.38
2023-03-12T05:15:12.422Z,99058.63
2023-03-12T05:17:39.462Z,99073.72
2023-03-12T05:20:07.692Z,99075.81
2023-03-12T05:22:34.651Z,99062.75
2023-03-12T05:25:02.311Z,99085.91
2023-03-12T05:27:31.826Z,99077.06
2023-03-12T05:30:06.482Z,99079.44
2023-03-12T05:32:33.744Z,99080.16
2023-03-12T05:35:00.841Z,99076.72
2023-03-12T05:37:27.954Z,99093.31
2023-03-12T05:39:55.495Z,99089.41
2023-03-12T05:42:25.401Z,99098.81
2023-03-12T05:44:53.023Z,99113.00
2023-03-12T05:47:20.080Z,99107.78
2023-03-12T05:49:48.492Z,99125.47
2023-03-12T05:52:16.997Z,99120.94
2023-03-12T05:54:43.883Z,99122.41
2023-03-12T05:57:10.680Z,99128.03
2023-03-12T05:59:37.678Z,99118.72
2023-03-12T06:02:06.366Z,99124.25
2023-03-12T06:04:33.455Z,99123.06
2023-03-12T06:07:00.342Z,99140.75
2023-03-12T06:09:28.590Z,99136.31
2023-03-12T06:11:55.441Z,99130.69
2023-03-12T06:14:22.297Z,99129.28
2023-03-12T06:16:49.149Z,99134.84
2023-03-12T06:19:16.033Z,99144.53
2023-03-12T06:21:43.602Z,99156.59
2023-03-12T06:24:10.548Z,99142.38
2023-03-12T06:26:37.424Z,99148.53
2023-03-12T06:29:04.286Z,99159.00
2023-03-12T06:31:32.208Z,99156.41
2023-03-12T06:33:59.121Z,99164.22
2023-03-12T06:36:28.722Z,99165.13
2023-03-12T06:38:57.186Z,99156.44
2023-03-12T06:41:24.312Z,99167.69
2023-03-12T06:43:52.484Z,99175.50
2023-03-12T06:46:25.811Z,99159.91
2023-03-12T06:48:53.012Z,99161.56
2023-03-12T06:51:19.853Z,99177.13
2023-03-12T06:53:47.454Z,99170.22
2023-03-12T06:56:16.589Z,99182.41
2023-03-12T06:58:43.461Z,99177.25
2023-03-12T07:01:12.724Z,99176.38
2023-03-12T07:03:39.778Z,99179.88
2023-03-12T07:06:14.268Z,99177.28
2023-03-12T07:08:41.337Z,99185.97
2023-03-12T07:11:08.363Z,99182.50
2023-03-12T07:13:35.560Z,99191.16
2023-03-12T07:16:04.580Z,99191.19
2023-03-12T07:18:31.630Z,99194.59
2023-03-12T07:20:59.129Z,99183.38
2023-03-12T07:23:44.669Z,99195.53
2023-03-12T07:26:11.852Z,99192.84
2023-03-12T07:28:38.769Z,99188.56
2023-03-12T07:31:06.814Z,99198.97
2023-03-12T07:33:34.218Z,99201.56
2023-03-12T07:36:01.783Z,99186.69
2023-03-12T07:38:29.313Z,99198.13
2023-03-12T07:40:58.468Z,99196.34
2023-03-12T07:43:25.741Z,99188.31
2023-03-12T07:45:53.066Z,99196.25
2023-03-12T07:48:20.433Z,99197.25
2023-03-12T07:50:48.594Z,99211.03
2023-03-12T07:53:18.362Z,99197.19
2023-03-12T07:55:48.056Z,99204.13
2023-03-12T07:58:16.983Z,99206.66
2023-03-12T08:00:44.510Z,99215.38
2023-03-12T08:03:12.153Z,99213.72
2023-03-12T08:05:39.514Z,99205.06
2023-03-12T08:08:06.962Z,99205.06
2023-03-12T08:10:34.217Z,99217.19
2023-03-12T08:13:01.309Z,99214.56
2023-03-12T08:15:28.670Z,99210.22
2023-03-12T08:17:55.742Z,99217.22
2023-03-12T08:20:22.630Z,99218.06
2023-03-12T08:22:50.020Z,99223.31
2023-03-12T08:25:18.823Z,99219.84
2023-03-12T08:27:45.865Z,99235.47
2023-03-12T08:30:13.295Z,99225.88
2023-03-12T08:32:59.408Z,99226.78
2023-03-12T08:35:26.609Z,99227.63
2023-03-12T08:37:53.552Z,99230.22
2023-03-12T08:40:23.628Z,99218.97
2023-03-12T08:42:50.765Z,99216.34
2023-03-12T08:45:18.002Z,99213.78
2023-03-12T08:47:46.328Z,99220.66
2023-03-12T08:50:19.741Z,99217.22
2023-03-12T08:52:46.988Z,99223.34
2023-03-12T08:55:13.951Z,99226.78
2023-03-12T08:57:41.587Z,99224.16
2023-03-12T09:00:15.118Z,99230.16
2023-03-12T09:02:46.160Z,99231.13
2023-03-12T09:05:13.938Z,99244.84
2023-03-12T09:07:42.115Z,99252.00
2023-03-12T09:10:09.965Z,99264.13
2023-03-12T09:12:37.074Z,99261.41
2023-03-12T09:15:05.222Z,99264.06
2023-03-12T09:17:32.709Z,99258.91
2023-03-12T09:20:04.510Z,99263.06
2023-03-12T09:22:31.559Z,99254.38
2023-03-12T09:25:00.296Z,99246.56
2023-03-12T09:27:27.347Z,99248.88
2023-03-12T09:30:00.685Z,99249.22
2023-03-12T09:32:29.835Z,99257.97
2023-03-12T09:34:56.896Z,99260.59
2023-03-12T09:37:24.548Z,99259.78
2023-03-12T09:39:52.579Z,99248.50
2023-03-12T09:42:33.583Z,99270.22
2023-03-12T09:45:04.914Z,99260.69
2023-03-12T09:47:47.834Z,99259.78
2023-03-12T09:50:22.153Z,99258.91
2023-03-12T09:52:55.909Z,99257.09
2023-03-12T09:55:25.015Z,99267.28
2023-03-12T09:57:53.330Z,99259.47
2023-03-12T10:00:23.628Z,99256.03
2023-03-12T10:02:59.114Z,99257.97
2023-03-12T10:05:51.111Z,99257.72
2023-03-12T10:08:41.657Z,99255.72
2023-03-12T10:11:46.585Z,99260.31
2023-03-12T10:14:44.387Z,99258.81
2023-03-12T10:17:43.820Z,99256.16
2023-03-12T10:20:47.304Z,99262.34
2023-03-12T10:23:21.798Z,99264.84
2023-03-12T10:26:05.685Z,99262.03
2023-03-12T10:28:37.904Z,99261.97
2023-03-12T10:31:19.184Z,99270.06
2023-03-12T10:33:59.806Z,99267.44
2023-03-12T10:36:35.196Z,99270.72
2023-03-12T10:39:02.355Z,99275.81
2023-03-12T10:41:34.656Z,99284.75
2023-03-12T10:44:08.035Z,99277.03
2023-03-12T10:46:37.872Z,99283.84
2023-03-12T10:49:23.202Z,99287.34
2023-03-12T10:52:05.349Z,99278.56
2023-03-12T10:54:40.958Z,99277.72
2023-03-12T10:57:08.719Z,99291.47
2023-03-12T10:59:38.972Z,99285.34
2023-03-12T11:02:37.810Z,99288.22
2023-03-12T11:05:23.007Z,99268.84
2023-03-12T11:07:50.581Z,99265.41
2023-03-12T11:10:19.447Z,99266.31
2023-03-12T11:13:21.271Z,99267.91
2023-03-12T11:15:48.554Z,99267.13
2023-03-12T11:18:25.344Z,99252.47
2023-03-12T11:21:00.712Z,99249.94
2023-03-12T11:23:30.594Z,99250.97
2023-03-12T11:26:19.554Z,99252.59
2023-03-12T11:28:51.118Z,99244.00
2023-03-12T11:31:34.972Z,99252.41
2023-03-12T11:34:08.264Z,99242.19
2023-03-12T11:36:34.964Z,99249.28
2023-03-12T11:39:10.909Z,99245.78
2023-03-12T11:41:59.566Z,99247.31
2023-03-12T11:44:35.607Z,99242.03
2023-03-12T11:47:46.267Z,99245.69
2023-03-12T11:50:25.836Z,99250.44
2023-03-12T11:53:01.745Z,99246.25
2023-03-12T11:55:57.174Z,99243.66
2023-03-12T11:58:54.468Z,99241.19
2023-03-12T12:01:24.197Z,99235.69
2023-03-12T12:04:00.156Z,99244.97
2023-03-12T12:06:48.290Z,99238.03
2023-03-12T12:09:36.595Z,99233.47
2023-03-12T12:12:27.656Z,99219.88
2023-03-12T12:15:14.986Z,99232.03
2023-03-12T12:18:02.572Z,99232.72
2023-03-12T12:20:46.924Z,99243.22
2023-03-12T12:23:26.806Z,99243.19
2023-03-12T12:26:03.301Z,99238.22
2023-03-12T12:28:46.327Z,99229.59
2023-03-12T12:31:24.955Z,99232.00
2023-03-12T12:34:27.126Z,99242.44
2023-03-12T12:37:07.351Z,99244.59
2023-03-12T12:39:41.565Z,99242.88
2023-03-12T12:42:15.385Z,99235.44
2023-03-12T12:44:51.457Z,99237.16
2023-03-12T12:47:37.616Z,99247.91
2023-03-12T12:50:04.881Z,99252.09
2023-03-12T12:52:32.438Z,99247.34
2023-03-12T12:55:20.788Z,99251.16
2023-03-12T12:58:02.126Z,99245.25
2023-03-12T13:00:47.715Z,99260.69
2023-03-12T13:03:23.865Z,99256.88
2023-03-12T13:06:05.656Z,99260.22
2023-03-12T13:08:44.357Z,99270.56
2023-03-12T13:11:20.659Z,99260.75
2023-03-12T13:14:03.048Z,99274.38
2023-03-12T13:16:34.801Z,99277.22
2023-03-12T13:19:28.375Z,99278.16
2023-03-12T13:22:27.982Z,99269.81
2023-03-12T13:25:22.089Z,99274.94
2023-03-12T13:27:59.012Z,99278.03
2023-03-12T13:30:35.224Z,99281.22
2023-03-12T13:33:02.214Z,99289.63
2023-03-12T13:35:37.594Z,99278.38
2023-03-12T13:38:07.263Z,99286.06
2023-03-12T13:40:55.979Z,99278.69
2023-03-12T13:43:32.188Z,99293.88
2023-03-12T13:46:26.974Z,99301.13
2023-03-12T13:49:00.582Z,99298.28
2023-03-12T13:51:28.507Z,99308.72
2023-03-12T13:54:01.764Z,99300.53
2023-03-12T13:56:33.232Z,99290.69
2023-03-12T13:59:04.020Z,99292.72
2023-03-12T14:01:51.103Z,99300.03
2023-03-12T14:04:21.002Z,99304.69
2023-03-12T14:07:08.390Z,99307.66
2023-03-12T14:09:41.041Z,99306.41
2023-03-12T14:12:23.366Z,99305.59
2023-03-12T14:15:26.230Z,99305.16
2023-03-12T14:18:01.777Z,99309.66
2023-03-12T14:20:30.227Z,99310.50
2023-03-12T14:23:04.591Z,99313.03
2023-03-12T14:25:38.449Z,99322.81
2023-03-12T14:28:22.263Z,99321.47
2023-03-12T14:30:58.980Z,99314.97
2023-03-12T14:33:32.246Z,99313.44
2023-03-12T14:36:17.116Z,99318.31
2023-03-12T14:38:46.315Z,99319.75
2023-03-12T14:41:19.131Z,99309.06
2023-03-12T14:43:46.760Z,99320.47
2023-03-12T14:46:19.409Z,99322.50
2023-03-12T14:48:49.681Z,99317.22
2023-03-12T14:51:28.637Z,99315.31
2023-03-12T14:53:56.683Z,99326.47
2023-03-12T14:56:45.103Z,99328.88
2023-03-12T14:59:29.405Z,99333.66
2023-03-12T15:02:01.572Z,99337.25
2023-03-12T15:04:30.261Z,99331.84
2023-03-12T15:07:01.775Z,99335.00
2023-03-12T15:09:31.461Z,99334.66
2023-03-12T15:12:04.691Z,99328.03
2023-03-12T15:14:38.082Z,99330.84
2023-03-12T15:17:07.236Z,99332.25
2023-03-12T15:19:40.424Z,99337.47
2023-03-12T15:22:12.085Z,99328.94
2023-03-12T15:24:40.892Z,99339.31
2023-03-12T15:27:26.029Z,99338.81
2023-03-12T15:29:53.125Z,99340.06
2023-03-12T15:32:24.990Z,99337.91
2023-03-12T15:34:54.053Z,99342.31
2023-03-12T15:37:38.179Z,99341.66
2023-03-12T15:40:18.205Z,99348.69
2023-03-12T15:42:47.239Z,99345.19
2023-03-12T15:45:35.302Z,99351.13
2023-03-12T15:48:04.720Z,99354.31
2023-03-12T15:50:37.962Z,99344.44
2023-03-12T15:53:27.795Z,99354.63
2023-03-12T15:56:02.842Z,99352.94
2023-03-12T15:58:40.114Z,99350.06
2023-03-12T16:01:10.339Z,99357.63
2023-03-12T16:03:38.650Z,99362.16
2023-03-12T16:06:11.181Z,99366.00
2023-03-12T16:08:44.387Z,99367.53
2023-03-12T16:11:27.102Z,99370.66
2023-03-12T16:14:04.799Z,99374.03
2023-03-12T16:16:31.836Z,99374.75
2023-03-12T16:19:01.745Z,99387.53
2023-03-12T16:21:28.920Z,99381.56
2023-03-12T16:23:59.036Z,99392.56
2023-03-12T16:26:26.110Z,99390.16
2023-03-12T16:28:53.201Z,99400.47
2023-03-12T16:31:22.509Z,99405.47
2023-03-12T16:33:52.092Z,99412.16
2023-03-12T16:36:19.566Z,99416.94
2023-03-12T16:38:47.126Z,99406.56
2023-03-12T16:41:19.411Z,99416.50
2023-03-12T16:43:50.230Z,99419.66
2023-03-12T16:46:19.957Z,99414.75
2023-03-12T16:48:52.900Z,99425.75
2023-03-12T16:51:20.137Z,99434.06
2023-03-12T16:53:51.056Z,99434.41
2023-03-12T16:56:45.825Z,99442.53
2023-03-12T16:59:16.400Z,99447.34
2023-03-12T17:01:43.375Z,99451.22
2023-03-12T17:04:11.445Z,99450.78
2023-03-12T17:06:40.626Z,99448.88
2023-03-12T17:09:08.684Z,99458.94
2023-03-12T17:11:38.069Z,99451.78
2023-03-12T17:14:20.099Z,99468.78
2023-03-12T17:16:47.181Z,99464.97
2023-03-12T17:19:14.563Z,99479.44
2023-03-12T17:21:41.716Z,99487.25
2023-03-12T17:24:10.350Z,99487.81
2023-03-12T17:26:37.474Z,99487.44
2023-03-12T17:29:04.345Z,99486.34
2023-03-12T17:31:31.293Z,99494.44
2023-03-12T17:33:58.355Z,99493.47
2023-03-12T17:36:26.156Z,99494.03
2023-03-12T17:38:53.204Z,99496.00
2023-03-12T17:41:26.442Z,99504.41
2023-03-12T17:43:55.105Z,99503.47
2023-03-12T17:46:22.311Z,99505.06
2023-03-12T17:48:49.342Z,99497.28
2023-03-12T17:51:16.559Z,99509.16
2023-03-12T17:53:43.506Z,99520.09
2023-03-12T17:56:12.783Z,99517.22
2023-03-12T17:58:39.857Z,99518.06
2023-03-12T18:01:07.112Z,99520.00
2023-03-12T18:03:34.138Z,99529.25
2023-03-12T18:06:01.571Z,99508.63
2023-03-12T18:08:28.578Z,99532.75
2023-03-12T18:10:55.704Z,99532.94
2023-03-12T18:13:22.900Z,99540.59
2023-03-12T18:15:54.949Z,99531.47
2023-03-12T18:18:23.338Z,99536.69
2023-03-12T18:20:50.870Z,99534.56
2023-03-12T18:23:20.110Z,99541.34
2023-03-12T18:25:47.217Z,99539.28
2023-03-12T18:28:15.711Z,99544.63
2023-03-12T18:30:45.594Z,99544.69
2023-03-12T18:33:14.290Z,99551.09
2023-03-12T18:35:41.283Z,99546.75
2023-03-12T18:38:08.139Z,99557.25
2023-03-12T18:40:35.280Z,99558.66
2023-03-12T18:43:03.368Z,99556.44
2023-03-12T18:45:30.260Z,99567.66
2023-03-12T18:47:57.561Z,99573.53
2023-03-12T18:50:24.836Z,99578.13
2023-03-12T18:52:53.100Z,99573.22
2023-03-12T18:55:21.177Z,99582.88
2023-03-12T18:57:49.422Z,99593.75
2023-03-12T19:00:22.400Z,99594.78
2023-03-12T19:02:49.529Z,99587.53
2023-03-12T19:05:17.544Z,99591.66
2023-03-12T19:07:44.689Z,99601.72
2023-03-12T19:10:12.866Z,99595.50
2023-03-12T19:12:51.645Z,99604.16
2023-03-12T19:15:21.437Z,99598.59
2023-03-12T19:17:48.537Z,99601.09
2023-03-12T19:20:15.809Z,99609.16
2023-03-12T19:22:43.777Z,99597.75
2023-03-12T19:25:11.018Z,99610.41
2023-03-12T19:27:38.041Z,99605.34
2023-03-12T19:30:06.330Z,99620.47
2023-03-12T19:32:43.390Z,99620.84
2023-03-12T19:35:12.861Z,99622.84
2023-03-12T19:37:40.060Z,99609.31
2023-03-12T19:40:07.779Z,99619.94
2023-03-12T19:42:34.723Z,99619.75
2023-03-12T19:45:02.184Z,99624.75
2023-03-12T19:47:29.602Z,99630.00
2023-03-12T19:49:56.625Z,99635.81
2023-03-12T19:52:24.274Z,99632.88
2023-03-12T19:55:03.264Z,99637.34
2023-03-12T19:57:31.327Z,99644.69
2023-03-12T20:00:01.159Z,99646.38
2023-03-12T20:02:28.420Z,99644.06
2023-03-12T20:04:55.794Z,99649.44
2023-03-12T20:07:23.412Z,99658.56
2023-03-12T20:09:50.565Z,99655.56
2023-03-12T20:12:17.632Z,99647.22
2023-03-12T20:14:46.349Z,99655.00
2023-03-12T20:17:32.648Z,99657.75
2023-03-12T20:20:02.598Z,99656.25
2023-03-12T20:22:29.611Z,99657.25
2023-03-12T20:24:56.476Z,99661.75
2023-03-12T20:27:23.813Z,99665.78
2023-03-12T20:29:51.066Z,99654.28
2023-03-12T20:32:20.893Z,99668.50
2023-03-12T20:34:47.985Z,99665.88
2023-03-12T20:37:15.957Z,99662.41
2023-03-12T20:39:43.077Z,99672.81
2023-03-12T20:42:09.904Z,99679.06
2023-03-12T20:44:36.740Z,99679.06
2023-03-12T20:47:03.919Z,99675.69
2023-03-12T20:49:30.728Z,99673.53
2023-03-12T20:51:57.594Z,99677.31
2023-03-12T20:54:24.582Z,99676.94
2023-03-12T20:56:51.550Z,99684.53
2023-03-12T20:59:18.421Z,99686.69
2023-03-12T21:01:45.461Z,99686.69
2023-03-12T21:04:14.876Z,99697.59
2023-03-12T21:06:43.080Z,99688.31
2023-03-12T21:09:10.090Z,99679.72
2023-03-12T21:11:39.211Z,99685.75
2023-03-12T21:14:06.663Z,99689.34
2023-03-12T21:16:33.763Z,99688.75
2023-03-12T21:19:00.819Z,99688.22
2023-03-12T21:21:28.432Z,99684.78
2023-03-12T21:23:55.575Z,99681.19
2023-03-12T21:26:22.495Z,99691.56
2023-03-12T21:28:49.665Z,99683.97
2023-03-12T21:31:17.793Z,99677.56
2023-03-12T21:33:44.986Z,99693.66
2023-03-12T21:36:14.008Z,99695.81
2023-03-12T21:38:45.129Z,99702.56
2023-03-12T21:41:15.270Z,99703.16
2023-03-12T21:43:43.452Z,99704.91
2023-03-12T21:46:13.088Z,99705.09
2023-03-12T21:48:42.097Z,99707.00
2023-03-12T21:51:11.343Z,99711.22
2023-03-12T21:53:39.381Z,99716.09
2023-03-12T21:56:08.300Z,99715.47
2023-03-12T21:58:36.270Z,99718.41
2023-03-12T22:01:06.270Z,99706.25
2023-03-12T22:03:33.813Z,99703.59
2023-03-12T22:06:00.890Z,99713.75
2023-03-12T22:08:27.779Z,99718.19
2023-03-12T22:10:54.782Z,99710.34
2023-03-12T22:13:24.084Z,99717.13
2023-03-12T22:16:07.061Z,99711.31
2023-03-12T22:18:41.278Z,99711.03
2023-03-12T22:21:17.082Z,99719.75
2023-03-12T22:23:48.360Z,99706.25
2023-03-12T22:26:15.763Z,99706.94
2023-03-12T22:28:43.155Z,99726.47
2023-03-12T22:31:10.808Z,99724.50
2023-03-12T22:33:37.856Z,99729.72
2023-03-12T22:36:07.718Z,99732.53
2023-03-12T22:38:37.007Z,99723.53
2023-03-12T22:41:13.087Z,99723.38
2023-03-12T22:43:50.956Z,99724.81
2023-03-12T22:46:19.553Z,99723.69
2023-03-12T22:48:53.435Z,99732.31
2023-03-12T22:51:22.697Z,99738.81
2023-03-12T22:53:50.141Z,99729.97
2023-03-12T22:56:17.023Z,99723.47
2023-03-12T22:58:44.473Z,99736.97
2023-03-12T23:01:14.287Z,99736.69
2023-03-12T23:03:43.146Z,99738.38
2023-03-12T23:06:13.094Z,99729.44
2023-03-12T23:08:40.533Z,99726.44
2023-03-12T23:11:08.800Z,99721.72
2023-03-12T23:13:38.347Z,99738.81
2023-03-12T23:16:26.167Z,99740.88
2023-03-12T23:18:54.283Z,99737.84
2023-03-12T23:21:24.836Z,99741.66
2023-03-12T23:23:52.760Z,99740.25
2023-03-12T23:26:29.174Z,99740.16
2023-03-12T23:28:57.076Z,99733.72
2023-03-12T23:31:25.070Z,99723.34
2023-03-12T23:33:52.147Z,99737.50
2023-03-12T23:36:21.822Z,99740.44
2023-03-12T23:38:50.232Z,99739.66
2023-03-12T23:41:22.790Z,99742.72
2023-03-12T23:43:50.762Z,99753.13
2023-03-12T23:46:18.464Z,99750.56
2023-03-12T23:48:46.122Z,99747.47
2023-03-12T23:51:15.868Z,99741.22
2023-03-12T23:53:45.649Z,99731.53
2023-03-12T23:56:16.838Z,99738.06
2023-03-12T23:58:44.678Z,99744.28
